Time;durP1;ratioP1;P1;durP2;ratioP2;P2;SDS_P1;SDS_P2;PMS_P1;PMS_P2;Temp;Humidity;BMP_temperature;BMP_pressure;BME280_temperature;BME280_humidity;BME280_pressure;Samples;Min_cycle;Max_cycle;Signal;HPM_P1;HPM_P2
2023/04/02 00:00:09;;;;;;;1999.90;999.90;;;;;;;8.74;100.00;94517.41;5084138;28;20271;-60
2023/04/02 00:02:53;;;;;;;1999.90;999.90;;;;;;;8.73;100.00;94526.00;5084655;28;20184;-60
2023/04/02 00:05:33;;;;;;;1999.90;999.90;;;;;;;8.71;100.00;94520.97;5084108;28;20169;-60
2023/04/02 00:08:19;;;;;;;1999.90;999.90;;;;;;;8.68;100.00;94513.63;5084800;28;20161;-60
2023/04/02 00:10:55;;;;;;;1999.90;999.90;;;;;;;8.63;100.00;94514.09;5084501;28;20161;-60
2023/04/02 00:13:42;;;;;;;1999.90;999.90;;;;;;;8.63;100.00;94516.81;5084376;28;20161;-60
2023/04/02 00:16:12;;;;;;;1999.90;999.90;;;;;;;8.61;100.00;94516.47;5084557;28;20176;-60
2023/04/02 00:18:44;;;;;;;1999.90;999.90;;;;;;;8.52;100.00;94521.63;5083873;28;20220;-59
2023/04/02 00:21:22;;;;;;;1999.90;999.90;;;;;;;8.48;100.00;94510.03;5084508;28;20188;-60
2023/04/02 00:23:47;;;;;;;1999.90;999.90;;;;;;;8.46;100.00;94506.97;5083815;28;20176;-59
2023/04/02 00:26:30;;;;;;;1999.90;999.90;;;;;;;8.44;100.00;94517.50;5083748;28;20266;-59
2023/04/02 00:28:55;;;;;;;1999.90;999.90;;;;;;;8.43;100.00;94524.13;5084101;28;20162;-59
2023/04/02 00:31:21;;;;;;;1999.90;999.90;;;;;;;8.44;100.00;94519.44;5084296;28;20161;-59
2023/04/02 00:33:48;;;;;;;1999.90;999.90;;;;;;;8.43;100.00;94518.69;5083897;28;20166;-60
2023/04/02 00:36:14;;;;;;;1999.90;999.90;;;;;;;8.43;100.00;94518.69;5083649;28;20162;-60
2023/04/02 00:38:42;;;;;;;1999.90;999.90;;;;;;;8.41;100.00;94525.72;5083598;28;20197;-59
2023/04/02 00:41:15;;;;;;;1999.90;999.90;;;;;;;8.38;100.00;94521.84;5084175;28;20167;-59
2023/04/02 00:43:45;;;;;;;1999.90;999.90;;;;;;;8.34;100.00;94520.38;5083896;28;20173;-59
2023/04/02 00:46:15;;;;;;;1999.90;999.90;;;;;;;8.30;100.00;94517.69;5084131;28;20157;-60
2023/04/02 00:48:51;;;;;;;1999.90;999.90;;;;;;;8.28;100.00;94522.78;5083576;28;20283;-59
2023/04/02 00:51:35;;;;;;;1999.90;999.90;;;;;;;8.25;100.00;94520.88;5083904;28;20169;-60
2023/04/02 00:54:05;;;;;;;1999.90;999.90;;;;;;;8.26;100.00;94519.69;5083735;28;20207;-60
2023/04/02 00:56:37;;;;;;;1999.90;999.90;;;;;;;8.26;100.00;94519.69;5084030;28;20243;-60
2023/04/02 00:59:03;;;;;;;1999.90;999.90;;;;;;;8.27;100.00;94525.91;5083949;28;20195;-60
2023/04/02 01:01:36;;;;;;;1999.90;999.90;;;;;;;8.23;100.00;94520.50;5083433;28;20196;-59
2023/04/02 01:04:04;;;;;;;1999.90;999.90;;;;;;;8.30;100.00;94536.72;5083962;28;20244;-60
2023/04/02 01:06:35;;;;;;;1999.90;999.90;;;;;;;8.29;100.00;94535.19;5083342;28;20200;-60
2023/04/02 01:09:39;;;;;;;1999.90;999.90;;;;;;;8.29;100.00;94524.31;5083985;28;20168;-59
2023/04/02 01:12:23;;;;;;;1999.90;999.90;;;;;;;8.30;100.00;94525.84;5026912;28;20241;-60
2023/04/02 01:15:07;;;;;;;1999.90;999.90;;;;;;;8.34;100.00;94531.25;5083944;28;20201;-60
2023/04/02 01:18:03;;;;;;;1999.90;999.90;;;;;;;8.33;100.00;94535.91;5087541;28;20172;-60
2023/04/02 01:20:47;;;;;;;1999.90;999.90;;;;;;;8.35;100.00;94533.56;5086953;28;20201;-60
2023/04/02 01:23:34;;;;;;;1999.90;999.90;;;;;;;8.36;100.00;94535.09;5087494;28;20165;-61
2023/04/02 01:26:03;;;;;;;1999.90;999.90;;;;;;;8.32;100.00;94534.38;5087080;28;20183;-60
2023/04/02 01:28:55;;;;;;;1999.90;999.90;;;;;;;8.33;100.00;94535.91;5086858;28;20176;-60
2023/04/02 01:31:21;;;;;;;1999.90;999.90;;;;;;;8.30;100.00;94536.72;5087276;28;20180;-60
2023/04/02 01:33:47;;;;;;;1999.90;999.90;;;;;;;8.32;100.00;94539.03;5087438;28;20169;-60
2023/04/02 01:36:25;;;;;;;1999.90;999.90;;;;;;;8.36;100.00;94540.53;5087061;28;20166;-61
2023/04/02 01:39:07;;;;;;;1999.90;999.90;;;;;;;8.35;100.00;94549.88;5087309;28;20252;-60
2023/04/02 01:41:39;;;;;;;1999.90;999.90;;;;;;;8.37;100.00;94547.50;5087299;28;20248;-60
2023/04/02 01:44:09;;;;;;;1999.90;999.90;;;;;;;8.37;100.00;94547.50;5087194;28;20169;-60
2023/04/02 01:46:39;;;;;;;1999.90;999.90;;;;;;;8.38;100.00;94548.28;5087084;28;20165;-60
2023/04/02 01:49:17;;;;;;;1999.90;999.90;;;;;;;8.38;100.00;94543.59;5087074;28;20162;-60
2023/04/02 01:51:45;;;;;;;1999.90;999.90;;;;;;;8.37;100.00;94552.94;5087070;28;20168;-60
2023/04/02 01:54:14;;;;;;;1999.90;999.90;;;;;;;8.39;100.00;94555.25;5086393;28;20206;-60
2023/04/02 01:56:40;;;;;;;1999.90;999.90;;;;;;;8.41;100.00;94555.63;5087221;28;20191;-60
2023/04/02 01:59:06;;;;;;;1999.90;999.90;;;;;;;8.42;100.00;94555.19;5086812;28;20253;-60
2023/04/02 02:01:44;;;;;;;1999.90;999.90;;;;;;;8.40;100.00;94557.56;5086224;28;20226;-60
2023/04/02 02:04:15;;;;;;;1999.90;999.90;;;;;;;8.39;100.00;94556.03;5086928;28;20193;-60
2023/04/02 02:06:41;;;;;;;1999.90;999.90;;;;;;;8.38;100.00;94557.19;5086863;28;20203;-60
2023/04/02 02:09:11;;;;;;;1999.90;999.90;;;;;;;8.40;100.00;94563.00;5086802;28;20207;-60
2023/04/02 02:11:37;;;;;;;1999.90;999.90;;;;;;;8.40;100.00;94559.50;5086567;28;20176;-60
2023/04/02 02:14:21;;;;;;;1999.90;999.90;;;;;;;8.40;100.00;94563.00;5086142;28;20236;-59
2023/04/02 02:16:47;;;;;;;1999.90;999.90;;;;;;;8.40;100.00;94563.00;5086479;28;20169;-61
2023/04/02 02:19:26;;;;;;;1999.90;999.90;;;;;;;8.37;100.00;94572.00;5086431;28;20192;-60
2023/04/02 02:21:53;;;;;;;1999.90;999.90;;;;;;;8.42;100.00;94571.53;5086495;28;20161;-60
2023/04/02 02:24:22;;;;;;;1999.90;999.90;;;;;;;8.43;100.00;94564.94;5085502;28;20169;-60
2023/04/02 02:26:58;;;;;;;1999.90;999.90;;;;;;;8.42;100.00;94576.22;5086387;28;20165;-60
2023/04/02 02:29:27;;;;;;;1999.90;999.90;;;;;;;8.46;100.00;94579.66;5085969;28;20216;-60
2023/04/02 02:31:54;;;;;;;1999.90;999.90;;;;;;;8.44;100.00;94580.06;5085628;28;20215;-59
2023/04/02 02:34:28;;;;;;;1999.90;999.90;;;;;;;8.44;100.00;94590.16;5085614;28;20168;-59
2023/04/02 02:37:14;;;;;;;1999.90;999.90;;;;;;;8.46;100.00;94599.47;5085517;28;20243;-60
2023/04/02 02:39:43;;;;;;;1999.90;999.90;;;;;;;8.43;100.00;94589.41;5086063;28;20264;-60
2023/04/02 02:42:19;;;;;;;1999.90;999.90;;;;;;;8.40;100.00;94587.50;5085455;28;20204;-61
2023/04/02 02:44:50;;;;;;;1999.90;999.90;;;;;;;8.45;100.00;94591.72;5085396;28;20228;-62
2023/04/02 02:47:27;;;;;;;1999.90;999.90;;;;;;;8.42;100.00;94593.28;5085782;28;20168;-60
2023/04/02 02:49:57;;;;;;;1999.90;999.90;;;;;;;8.36;100.00;94589.50;5086075;28;20169;-60
2023/04/02 02:52:30;;;;;;;1999.90;999.90;;;;;;;8.41;100.00;94597.19;5084920;28;20172;-60
2023/04/02 02:55:00;;;;;;;1999.90;999.90;;;;;;;8.40;100.00;94595.66;5085394;28;20214;-60
2023/04/02 02:57:29;;;;;;;1999.90;999.90;;;;;;;8.41;100.00;94599.91;5085087;28;20169;-60
2023/04/02 02:59:58;;;;;;;1999.90;999.90;;;;;;;8.39;100.00;94604.22;5084791;28;20193;-61
2023/04/02 03:02:26;;;;;;;1999.90;999.90;;;;;;;8.36;100.00;94610.47;5085012;28;20188;-61
2023/04/02 03:04:53;;;;;;;1999.90;999.90;;;;;;;8.41;100.00;94608.06;5085548;28;20176;-61
2023/04/02 03:07:24;;;;;;;1999.90;999.90;;;;;;;8.42;100.00;94606.88;5084974;28;20165;-61
2023/04/02 03:10:13;;;;;;;1999.90;999.90;;;;;;;8.46;100.00;94607.63;5085521;28;20180;-61
2023/04/02 03:12:44;;;;;;;1999.90;999.90;;;;;;;8.46;100.00;94615.81;5085366;28;20250;-60
2023/04/02 03:15:21;;;;;;;1999.90;999.90;;;;;;;8.41;100.00;94607.31;5084816;28;20185;-61
2023/04/02 03:17:57;;;;;;;1999.90;999.90;;;;;;;8.40;100.00;94617.41;5085099;28;20169;-61
2023/04/02 03:20:33;;;;;;;1999.90;999.90;;;;;;;8.40;100.00;94617.41;5084766;28;20203;-61
2023/04/02 03:23:11;;;;;;;1999.90;999.90;;;;;;;8.38;100.00;94619.75;5085582;28;20236;-60
2023/04/02 03:25:53;;;;;;;1999.90;999.90;;;;;;;8.39;100.00;94615.88;5085203;28;20198;-61
2023/04/02 03:28:24;;;;;;;1999.90;999.90;;;;;;;8.37;100.00;94618.22;5084893;28;20256;-60
2023/04/02 03:30:57;;;;;;;1999.90;999.90;;;;;;;8.32;100.00;94615.97;5084963;28;20279;-60
2023/04/02 03:33:30;;;;;;;1999.90;999.90;;;;;;;8.34;100.00;94618.28;5085204;28;20161;-60
2023/04/02 03:36:03;;;;;;;1999.90;999.90;;;;;;;8.38;100.00;94627.19;5084410;28;20160;-60
2023/04/02 03:38:40;;;;;;;1999.90;999.90;;;;;;;8.33;100.00;94625.66;5084159;28;20229;-61
2023/04/02 03:41:16;;;;;;;1999.90;999.90;;;;;;;8.34;100.00;94627.19;5084944;28;20169;-60
2023/04/02 03:43:46;;;;;;;1999.90;999.90;;;;;;;8.30;100.00;94633.88;5084496;28;20215;-60
2023/04/02 03:46:25;;;;;;;1999.90;999.90;;;;;;;8.39;100.00;94636.88;5084366;28;20177;-61
2023/04/02 03:48:55;;;;;;;1999.90;999.90;;;;;;;8.39;100.00;94639.59;5084365;28;20168;-61
2023/04/02 03:51:29;;;;;;;1999.90;999.90;;;;;;;8.35;100.00;94631.47;5084719;28;20161;-61
2023/04/02 03:53:55;;;;;;;1999.90;999.90;;;;;;;8.29;100.00;94640.47;5084537;28;20191;-60
2023/04/02 03:56:30;;;;;;;1999.90;999.90;;;;;;;8.34;100.00;94638.09;5084224;28;20178;-60
2023/04/02 03:59:11;;;;;;;1999.90;999.90;;;;;;;8.30;100.00;94634.63;5083997;28;20200;-60
2023/04/02 04:01:44;;;;;;;1999.90;999.90;;;;;;;8.27;100.00;94635.44;5084637;28;20441;-61
2023/04/02 04:04:16;;;;;;;1999.90;999.90;;;;;;;8.32;100.00;94645.13;5084550;28;20270;-61
2023/04/02 04:06:48;;;;;;;1999.90;999.90;;;;;;;8.28;100.00;94636.22;5084324;28;20164;-60
2023/04/02 04:09:28;;;;;;;1999.90;999.90;;;;;;;8.30;100.00;94648.25;5084480;28;20165;-61
2023/04/02 04:12:14;;;;;;;1999.90;999.90;;;;;;;8.27;100.00;94646.31;5084139;28;20188;-61
2023/04/02 04:14:48;;;;;;;1999.90;999.90;;;;;;;8.28;100.00;94658.78;5084519;28;20161;-61
2023/04/02 04:17:28;;;;;;;1999.90;999.90;;;;;;;8.27;100.00;94657.19;5084454;28;20157;-61
2023/04/02 04:20:06;;;;;;;1999.90;999.90;;;;;;;8.28;100.00;94663.44;5084234;28;20233;-61
2023/04/02 04:22:32;;;;;;;1999.90;999.90;;;;;;;8.22;100.00;94660.38;5084335;28;20269;-61
2023/04/02 04:25:00;;;;;;;1999.90;999.90;;;;;;;8.25;100.00;94656.84;5084319;28;20165;-61
2023/04/02 04:27:47;;;;;;;1999.90;999.90;;;;;;;8.26;100.00;94669.25;5084277;28;20200;-60
2023/04/02 04:30:19;;;;;;;1999.90;999.90;;;;;;;8.28;100.00;94672.38;5084150;28;20209;-60
2023/04/02 04:32:57;;;;;;;1999.90;999.90;;;;;;;8.21;100.00;94675.16;5084381;28;20180;-60
2023/04/02 04:35:22;;;;;;;1999.90;999.90;;;;;;;8.21;100.00;94682.50;5084202;28;20191;-60
2023/04/02 04:37:57;;;;;;;1999.90;999.90;;;;;;;8.18;100.00;94681.38;5084274;28;20172;-60
2023/04/02 04:40:27;;;;;;;1999.90;999.90;;;;;;;8.16;100.00;94683.72;5084097;28;20203;-60
2023/04/02 04:42:58;;;;;;;1999.90;999.90;;;;;;;8.13;100.00;94681.81;5084134;28;20173;-60
2023/04/02 04:45:45;;;;;;;1999.90;999.90;;;;;;;8.15;100.00;94687.63;5084121;28;20172;-61
2023/04/02 04:48:17;;;;;;;1999.90;999.90;;;;;;;8.08;100.00;94687.69;5088304;28;20172;-62
2023/04/02 04:51:03;;;;;;;1999.90;999.90;;;;;;;8.09;100.00;94694.66;5088222;28;20190;-59
2023/04/02 04:53:29;;;;;;;1999.90;999.90;;;;;;;8.11;100.00;94696.97;5088198;28;20184;-61
2023/04/02 04:56:01;;;;;;;1999.90;999.90;;;;;;;8.12;100.00;94701.25;5088089;28;20173;-61
2023/04/02 04:58:44;;;;;;;1999.90;999.90;;;;;;;7.97;100.00;94695.19;5087885;28;20173;-61
2023/04/02 05:01:36;;;;;;;1999.90;999.90;;;;;;;8.00;100.00;94701.75;5087981;28;20182;-61
2023/04/02 05:04:16;;;;;;;1999.90;999.90;;;;;;;8.01;100.00;94709.50;5087401;28;20165;-61
2023/04/02 05:06:44;;;;;;;1999.90;999.90;;;;;;;7.99;100.00;94706.44;5087744;28;20197;-61
2023/04/02 05:09:36;;;;;;;1999.90;999.90;;;;;;;7.99;100.00;94711.88;5086913;28;20176;-61
2023/04/02 05:12:04;;;;;;;1999.90;999.90;;;;;;;7.98;100.00;94715.00;5081109;28;20188;-60
2023/04/02 05:14:39;;;;;;;1999.90;999.90;;;;;;;8.03;100.00;94722.69;5087171;28;20188;-61
2023/04/02 05:17:08;;;;;;;1999.90;999.90;;;;;;;8.06;100.00;94725.41;5087604;28;20191;-61
2023/04/02 05:19:42;;;;;;;1999.90;999.90;;;;;;;8.06;100.00;94728.13;5087068;28;20276;-61
2023/04/02 05:22:19;;;;;;;1999.90;999.90;;;;;;;8.03;100.00;94728.91;5086739;28;20233;-60
2023/04/02 05:24:54;;;;;;;1999.90;999.90;;;;;;;8.02;100.00;94732.03;5087691;28;20165;-60
2023/04/02 05:27:38;;;;;;;1999.90;999.90;;;;;;;7.94;100.00;94734.03;5087067;28;20178;-61
2023/04/02 05:30:11;;;;;;;1999.90;999.90;;;;;;;7.93;100.00;94729.78;5087221;28;20242;-60
2023/04/02 05:32:44;;;;;;;1999.90;999.90;;;;;;;8.02;100.00;94732.81;5087338;28;20239;-61
2023/04/02 05:35:17;;;;;;;1999.90;999.90;;;;;;;8.06;100.00;94739.00;5087408;28;20168;-62
2023/04/02 05:37:44;;;;;;;1999.90;999.90;;;;;;;8.07;100.00;94740.53;5087155;28;20165;-60
2023/04/02 05:40:21;;;;;;;1999.90;999.90;;;;;;;8.09;100.00;94749.03;5086757;28;20208;-61
2023/04/02 05:42:49;;;;;;;1999.90;999.90;;;;;;;8.13;100.00;94747.09;5087218;28;20206;-60
2023/04/02 05:45:19;;;;;;;1999.90;999.90;;;;;;;8.18;100.00;94759.44;5087117;28;20184;-60
2023/04/02 05:47:47;;;;;;;1999.90;999.90;;;;;;;8.17;100.00;94764.13;5087263;28;20192;-60
2023/04/02 05:50:23;;;;;;;1999.90;999.90;;;;;;;8.14;100.00;94762.22;5087086;28;20218;-60
2023/04/02 05:53:20;;;;;;;1999.90;999.90;;;;;;;8.21;100.00;94762.19;5086946;28;20172;-60
2023/04/02 05:56:07;;;;;;;1999.90;999.90;;;;;;;8.18;100.00;94762.97;5074147;28;20181;-60
2023/04/02 05:58:41;;;;;;;1999.90;999.90;;;;;;;8.16;100.00;94769.97;5086400;28;20165;-62
2023/04/02 06:01:32;;;;;;;1999.90;999.90;;;;;;;8.18;100.00;94768.41;5086859;28;20188;-61
2023/04/02 06:04:29;;;;;;;1999.90;999.90;;;;;;;8.23;100.00;94781.56;5086846;28;20176;-62
2023/04/02 06:07:02;;;;;;;1999.90;999.90;;;;;;;8.19;100.00;94775.38;5086173;28;20177;-62
2023/04/02 06:09:36;;;;;;;1999.90;999.90;;;;;;;8.26;100.00;94786.22;5086947;28;20243;-61
2023/04/02 06:12:25;;;;;;;1999.90;999.90;;;;;;;8.26;100.00;94786.22;5086631;28;20165;-61
2023/04/02 06:14:51;;;;;;;1999.90;999.90;;;;;;;8.30;100.00;94781.50;5086360;28;20204;-63
2023/04/02 06:17:18;;;;;;;1999.90;999.90;;;;;;;8.32;100.00;94790.06;5086220;28;20172;-62
2023/04/02 06:19:46;;;;;;;1999.90;999.90;;;;;;;8.33;100.00;94786.16;5085887;28;20205;-61
2023/04/02 06:22:38;;;;;;;1999.90;999.90;;;;;;;8.40;100.00;94796.19;5086556;28;20223;-63
2023/04/02 06:25:25;;;;;;;1999.90;999.90;;;;;;;8.39;100.00;94790.00;5086509;28;20170;-62
2023/04/02 06:27:53;;;;;;;1999.90;999.90;;;;;;;8.46;100.00;94792.63;5086561;28;20238;-62
2023/04/02 06:30:24;;;;;;;1999.90;999.90;;;;;;;8.48;100.00;94798.44;5086072;28;20225;-62
2023/04/02 06:32:50;;;;;;;1999.90;999.90;;;;;;;8.58;100.00;94797.56;5085641;28;20173;-58
2023/04/02 06:35:16;;;;;;;1999.90;999.90;;;;;;;8.76;100.00;94803.59;5086191;28;20200;-61
2023/04/02 06:37:46;;;;;;;1999.90;999.90;;;;;;;8.82;100.00;94807.41;5086358;28;20180;-60
2023/04/02 06:40:20;;;;;;;1999.90;999.90;;;;;;;8.74;100.00;94805.94;5085542;28;20227;-62
2023/04/02 06:42:48;;;;;;;1999.90;999.90;;;;;;;8.70;100.00;94804.41;5085505;28;20196;-61
2023/04/02 06:45:29;;;;;;;1999.90;999.90;;;;;;;8.77;100.00;94816.00;5085424;28;20187;-61
2023/04/02 06:47:58;;;;;;;1999.90;999.90;;;;;;;8.84;100.00;94815.94;5086032;28;20246;-61
2023/04/02 06:50:33;;;;;;;1999.90;999.90;;;;;;;8.87;100.00;94817.84;5085891;28;20240;-62
2023/04/02 06:53:07;;;;;;;1999.90;999.90;;;;;;;8.89;100.00;94820.19;5085909;28;20161;-62
2023/04/02 06:55:54;;;;;;;1999.90;999.90;;;;;;;9.01;100.00;94836.75;5085167;28;20189;-62
2023/04/02 06:58:19;;;;;;;1999.90;999.90;;;;;;;9.04;100.00;94835.94;5085023;28;20173;-64
2023/04/02 07:00:48;;;;;;;1999.90;999.90;;;;;;;9.16;100.00;94842.81;5085597;28;20218;-62
2023/04/02 07:03:20;;;;;;;1999.90;999.90;;;;;;;9.10;100.00;94842.47;5085266;28;20210;-62
2023/04/02 07:05:46;;;;;;;1999.90;999.90;;;;;;;9.07;100.00;94851.47;5085705;28;20173;-62
2023/04/02 07:08:11;;;;;;;1999.90;999.90;;;;;;;9.23;100.00;94854.41;5084887;28;20169;-61
2023/04/02 07:10:36;;;;;;;1999.90;999.90;;;;;;;9.27;100.00;94854.34;5084238;28;20236;-64
2023/04/02 07:13:03;;;;;;;1999.90;999.90;;;;;;;9.35;100.00;94856.59;5084952;28;20193;-63
2023/04/02 07:15:28;;;;;;;1999.90;999.90;;;;;;;9.53;100.00;94859.84;5084507;28;20236;-62
2023/04/02 07:17:56;;;;;;;1999.90;999.90;;;;;;;9.61;100.00;94858.56;5084814;28;20173;-62
2023/04/02 07:20:31;;;;;;;1999.90;999.90;;;;;;;9.72;100.00;94872.84;5084646;28;20226;-62
2023/04/02 07:22:57;;;;;;;1999.90;999.90;;;;;;;9.84;100.00;94872.28;5085046;28;20174;-62
2023/04/02 07:25:23;;;;;;;1999.90;999.90;;;;;;;9.92;100.00;94878.41;5084548;28;20170;-62
2023/04/02 07:27:50;;;;;;;1999.90;999.90;;;;;;;9.97;100.00;94870.53;5084752;28;20185;-62
2023/04/02 07:30:26;;;;;;;1999.90;999.90;;;;;;;10.16;100.00;94876.53;5082889;28;20545;-60
2023/04/02 07:32:51;;;;;;;1999.90;999.90;;;;;;;10.30;100.00;94876.31;5081742;28;20451;-61
2023/04/02 07:35:16;;;;;;;1999.90;999.90;;;;;;;10.32;100.00;94884.84;5081087;28;20259;-61
2023/04/02 07:37:42;;;;;;;1999.90;999.90;;;;;;;10.57;100.00;94879.78;5081066;28;20171;-59
2023/04/02 07:40:15;;;;;;;1999.90;999.90;;;;;;;10.53;100.00;94879.84;5080918;28;20545;-60
2023/04/02 07:42:41;;;;;;;1999.90;999.90;;;;;;;10.53;100.00;94892.72;5081455;28;20166;-61
2023/04/02 07:45:07;;;;;;;1999.90;999.90;;;;;;;10.78;100.00;94890.34;5080849;28;20168;-61
2023/04/02 07:47:32;;;;;;;1999.90;999.90;;;;;;;10.89;100.00;94896.41;5080741;28;20176;-64
2023/04/02 07:49:58;;;;;;;1999.90;999.90;;;;;;;10.84;100.00;94899.59;5080720;28;20204;-62
2023/04/02 07:52:23;;;;;;;1999.90;999.90;;;;;;;10.80;100.00;94904.34;5080809;28;20211;-61
2023/04/02 07:54:48;;;;;;;1999.90;999.90;;;;;;;10.80;100.00;94904.34;5081050;28;20192;-61
2023/04/02 07:57:14;;;;;;;1999.90;999.90;;;;;;;11.01;100.00;94906.72;5080719;28;20174;-62
2023/04/02 07:59:39;;;;;;;1999.90;999.90;;;;;;;10.88;100.00;94908.50;5081146;28;20178;-61
2023/04/02 08:02:04;;;;;;;1999.90;999.90;;;;;;;11.19;100.00;94918.09;5080656;28;20178;-60
2023/04/02 08:04:30;;;;;;;1999.90;999.90;;;;;;;11.29;100.00;94917.88;5080224;28;20172;-60
2023/04/02 08:06:55;;;;;;;1999.90;999.90;;;;;;;11.30;100.00;94918.66;5080524;28;20173;-59
2023/04/02 08:09:20;;;;;;;1999.90;999.90;;;;;;;11.31;100.00;94925.69;5080267;28;20196;-61
2023/04/02 08:11:46;;;;;;;1999.90;999.90;;;;;;;11.37;100.00;94926.75;5080376;28;20193;-60
2023/04/02 08:14:11;;;;;;;1999.90;999.90;;;;;;;11.40;100.00;94923.19;5080042;28;20243;-60
2023/04/02 08:16:48;;;;;;;1999.90;999.90;;;;;;;11.27;100.00;94922.25;5080736;28;20474;-60
2023/04/02 08:19:14;;;;;;;1999.90;999.90;;;;;;;11.50;100.00;94927.66;5080428;28;20157;-61
2023/04/02 08:21:39;;;;;;;1999.90;999.90;;;;;;;11.64;100.00;94935.59;5080044;28;20404;-60
2023/04/02 08:24:05;;;;;;;1999.90;999.90;;;;;;;11.68;100.00;94933.56;5080476;28;20168;-59
2023/04/02 08:26:30;;;;;;;1999.90;999.90;;;;;;;11.87;100.00;94932.81;5080798;28;20500;-58
2023/04/02 08:28:55;;;;;;;1999.90;999.90;;;;;;;11.89;100.00;94931.19;5079708;28;20311;-59
2023/04/02 08:31:22;;;;;;;1999.90;999.90;;;;;;;12.02;100.00;94939.53;5080025;28;20361;-60
2023/04/02 08:33:47;;;;;;;1999.90;999.90;;;;;;;12.19;100.00;94932.88;5079999;28;20193;-59
2023/04/02 08:36:17;;;;;;;1999.90;999.90;;;;;;;12.14;100.00;94941.63;5080066;28;20188;-59
2023/04/02 08:38:43;;;;;;;1999.90;999.90;;;;;;;12.25;100.00;94931.19;5079649;28;20181;-62
2023/04/02 08:41:18;;;;;;;1999.90;999.90;;;;;;;12.31;100.00;94940.47;5069635;28;20169;-61
2023/04/02 08:44:10;;;;;;;1999.90;999.90;;;;;;;12.29;100.00;94945.59;5066218;28;20162;-60
2023/04/02 08:46:58;;;;;;;1999.90;999.90;;;;;;;12.31;100.00;94948.69;5066119;28;20162;-61
2023/04/02 08:49:38;;;;;;;1999.90;999.90;;;;;;;12.17;100.00;94951.72;5066784;28;20208;-61
2023/04/02 08:52:04;;;;;;;1999.90;999.90;;;;;;;12.62;100.00;94953.44;5066005;28;20174;-61
2023/04/02 08:54:36;;;;;;;1999.90;999.90;;;;;;;12.70;100.00;94948.53;5066304;28;20459;-61
2023/04/02 08:57:22;;;;;;;1999.90;999.90;;;;;;;12.55;100.00;94942.63;5066752;28;20173;-62
2023/04/02 08:59:51;;;;;;;1999.90;999.90;;;;;;;12.65;100.00;94955.28;5066670;28;20166;-61
2023/04/02 09:02:40;;;;;;;1999.90;999.90;;;;;;;12.71;100.00;94958.28;5066095;28;20366;-61
2023/04/02 09:05:15;;;;;;;1999.90;999.90;;;;;;;12.91;100.00;94956.25;5066067;28;20174;-61
2023/04/02 09:07:40;;;;;;;1999.90;999.90;;;;;;;13.28;100.00;94962.00;5067310;28;20162;-61
2023/04/02 09:10:14;;;;;;;1999.90;999.90;;;;;;;13.37;100.00;94958.66;5066402;28;20201;-61
2023/04/02 09:12:42;;;;;;;1999.90;999.90;;;;;;;13.79;100.00;94963.00;5066731;28;20162;-61
2023/04/02 09:15:13;;;;;;;1999.90;999.90;;;;;;;14.07;100.00;94962.22;5066369;28;20245;-60
2023/04/02 09:17:39;;;;;;;1999.90;999.90;;;;;;;14.12;100.00;94961.66;5066041;28;20200;-61
2023/04/02 09:20:20;;;;;;;1999.90;999.90;;;;;;;13.81;100.00;94973.53;5066439;28;20174;-60
2023/04/02 09:22:49;;;;;;;1999.90;999.90;;;;;;;13.70;100.00;94956.59;5066161;28;20443;-63
2023/04/02 09:25:21;;;;;;;1999.90;999.90;;;;;;;13.67;100.00;94973.91;5065660;28;20170;-60
2023/04/02 09:27:49;;;;;;;1999.90;999.90;;;;;;;13.95;100.00;94976.66;5065630;28;20347;-60
2023/04/02 09:30:55;;;;;;;1999.90;999.90;;;;;;;13.80;100.00;94983.75;5066730;28;20284;-59
2023/04/02 09:33:39;;;;;;;1999.90;999.90;;;;;;;13.87;100.00;94994.53;5047958;28;20201;-62
2023/04/02 09:36:16;;;;;;;1999.90;999.90;;;;;;;14.01;100.00;94983.16;5048504;28;20181;-59
2023/04/02 09:38:56;;;;;;;1999.90;999.90;;;;;;;13.86;100.00;94993.00;5047997;28;20239;-65
2023/04/02 09:41:26;;;;;;;1999.90;999.90;;;;;;;13.46;100.00;94997.22;5048402;28;20174;-58
2023/04/02 09:44:12;;;;;;;1999.90;999.90;;;;;;;13.56;100.00;94990.69;5048609;28;20184;-58
2023/04/02 09:46:47;;;;;;;1999.90;999.90;;;;;;;13.51;100.00;94993.94;5047992;28;20216;-59
2023/04/02 09:49:16;;;;;;;1999.90;999.90;;;;;;;13.41;100.00;94997.75;5047928;28;20270;-58
2023/04/02 09:51:42;;;;;;;1999.90;999.90;;;;;;;13.66;100.00;95000.59;5046884;28;20522;-58
2023/04/02 09:54:13;;;;;;;1999.90;999.90;;;;;;;13.68;100.00;94995.44;5047554;28;20197;-58
2023/04/02 09:56:40;;;;;;;1999.90;999.90;;;;;;;14.10;100.00;94990.78;5047727;28;20166;-58
2023/04/02 09:59:05;;;;;;;1999.90;999.90;;;;;;;15.42;100.00;95004.41;5047504;28;20256;-59
2023/04/02 10:01:36;;;;;;;1999.90;999.90;;;;;;;16.29;100.00;95004.06;5047517;28;20192;-58
2023/04/02 10:04:03;;;;;;;1999.90;999.90;;;;;;;16.07;100.00;95003.28;5052205;28;20174;-60
2023/04/02 10:06:31;;;;;;;1999.90;999.90;;;;;;;15.58;100.00;95013.28;5065401;28;20166;-59
2023/04/02 10:08:57;;;;;;;1999.90;999.90;;;;;;;15.09;100.00;95012.13;5064808;28;20197;-59
2023/04/02 10:11:30;;;;;;;1999.90;999.90;;;;;;;15.00;100.00;94998.25;5064687;28;20546;-59
2023/04/02 10:14:16;;;;;;;1999.90;999.90;;;;;;;14.86;100.00;95006.94;5064695;28;20204;-60
2023/04/02 10:16:56;;;;;;;1999.90;999.90;;;;;;;14.50;100.00;95003.72;5065137;28;20211;-59
2023/04/02 10:19:26;;;;;;;1999.90;999.90;;;;;;;14.09;100.00;95016.69;5064338;28;20174;-60
2023/04/02 10:21:53;;;;;;;1999.90;999.90;;;;;;;14.10;100.00;95012.75;5064623;28;20170;-60
2023/04/02 10:24:18;;;;;;;1999.90;999.90;;;;;;;13.84;100.00;95017.34;5064424;28;20520;-60
2023/04/02 10:27:16;;;;;;;1999.90;999.90;;;;;;;13.84;100.00;95016.59;5064550;28;20166;-59
2023/04/02 10:30:01;;;;;;;1999.90;999.90;;;;;;;13.77;100.00;95009.31;5064373;28;20221;-59
2023/04/02 10:32:48;;;;;;;1999.90;999.90;;;;;;;13.76;100.00;95009.75;5065197;28;20177;-58
2023/04/02 10:35:50;;;;;;;1999.90;999.90;;;;;;;13.89;100.00;95014.09;5064764;28;20173;-59
2023/04/02 10:38:16;;;;;;;1999.90;999.90;;;;;;;14.30;100.00;95016.09;5064323;28;20169;-61
2023/04/02 10:40:47;;;;;;;1999.90;999.90;;;;;;;14.43;100.00;95014.94;5064952;28;20166;-59
2023/04/02 10:43:52;;;;;;;1999.90;999.90;;;;;;;14.62;100.00;95022.22;5064642;28;20173;-59
2023/04/02 10:46:35;;;;;;;1999.90;999.90;;;;;;;14.89;100.00;95014.31;5064673;28;20170;-60
2023/04/02 10:49:26;;;;;;;1999.90;999.90;;;;;;;15.15;100.00;95015.84;5064905;28;20427;-61
2023/04/02 10:52:08;;;;;;;1999.90;999.90;;;;;;;15.45;100.00;95023.53;5064884;28;20170;-60
2023/04/02 10:54:44;;;;;;;1999.90;999.90;;;;;;;15.62;100.00;95027.69;5064125;28;20185;-60
2023/04/02 10:57:20;;;;;;;1999.90;999.90;;;;;;;15.79;100.00;95028.31;5064008;28;20165;-59
2023/04/02 10:59:53;;;;;;;1999.90;999.90;;;;;;;15.89;100.00;95029.94;5064498;28;20188;-59
2023/04/02 11:02:51;;;;;;;1999.90;999.90;;;;;;;16.22;100.00;95031.88;5064299;28;20372;-60
2023/04/02 11:05:45;;;;;;;1999.90;999.90;;;;;;;15.92;100.00;95024.28;5063788;28;20191;-60
2023/04/02 11:08:19;;;;;;;1999.90;999.90;;;;;;;15.80;100.00;95032.59;5063205;28;20249;-59
2023/04/02 11:10:54;;;;;;;1999.90;999.90;;;;;;;15.88;100.00;95029.16;5064333;28;20173;-59
2023/04/02 11:13:36;;;;;;;1999.90;999.90;;;;;;;16.02;100.00;95034.19;5064217;28;20196;-59
2023/04/02 11:16:02;;;;;;;1999.90;999.90;;;;;;;15.78;100.00;95030.28;5064617;28;20363;-60
2023/04/02 11:18:35;;;;;;;1999.90;999.90;;;;;;;16.06;100.00;95029.31;5063636;28;20169;-60
2023/04/02 11:21:28;;;;;;;1999.90;999.90;;;;;;;15.45;100.00;95034.53;5063650;28;20166;-59